sensor_id;sensor_type;location;lat;lon;timestamp;P1;durP1;ratioP1;P2;durP2;ratioP2
8803;SDS011;4438;50.890;4.726;2022-12-11T00:00:22;22.80;;;13.93;;
8803;SDS011;4438;50.890;4.726;2022-12-11T00:02:48;24.30;;;13.80;;
8803;SDS011;4438;50.890;4.726;2022-12-11T00:05:14;21.23;;;13.53;;
8803;SDS011;4438;50.890;4.726;2022-12-11T00:07:40;19.73;;;13.87;;
8803;SDS011;4438;50.890;4.726;2022-12-11T00:10:06;22.37;;;13.50;;
8803;SDS011;4438;50.890;4.726;2022-12-11T00:12:33;21.00;;;14.00;;
8803;SDS011;4438;50.890;4.726;2022-12-11T00:14:59;20.87;;;13.57;;
8803;SDS011;4438;50.890;4.726;2022-12-11T00:17:25;18.93;;;13.00;;
8803;SDS011;4438;50.890;4.726;2022-12-11T00:19:51;20.07;;;13.90;;
8803;SDS011;4438;50.890;4.726;2022-12-11T00:22:17;19.43;;;13.17;;
8803;SDS011;4438;50.890;4.726;2022-12-11T00:24:44;19.37;;;12.83;;
8803;SDS011;4438;50.890;4.726;2022-12-11T00:27:10;17.53;;;12.77;;
8803;SDS011;4438;50.890;4.726;2022-12-11T00:29:36;18.37;;;13.27;;
8803;SDS011;4438;50.890;4.726;2022-12-11T00:32:02;20.00;;;12.63;;
8803;SDS011;4438;50.890;4.726;2022-12-11T00:34:28;21.90;;;13.07;;
8803;SDS011;4438;50.890;4.726;2022-12-11T00:36:54;18.37;;;12.37;;
8803;SDS011;4438;50.890;4.726;2022-12-11T00:39:20;18.57;;;12.30;;
8803;SDS011;4438;50.890;4.726;2022-12-11T00:41:47;19.20;;;13.27;;
8803;SDS011;4438;50.890;4.726;2022-12-11T00:44:13;20.00;;;13.50;;
8803;SDS011;4438;50.890;4.726;2022-12-11T00:46:39;19.27;;;13.50;;
8803;SDS011;4438;50.890;4.726;2022-12-11T00:49:05;20.03;;;13.20;;
8803;SDS011;4438;50.890;4.726;2022-12-11T00:51:32;20.67;;;13.70;;
8803;SDS011;4438;50.890;4.726;2022-12-11T00:53:58;17.40;;;12.10;;
8803;SDS011;4438;50.890;4.726;2022-12-11T00:56:24;18.60;;;13.60;;
8803;SDS011;4438;50.890;4.726;2022-12-11T00:58:50;19.57;;;14.10;;
8803;SDS011;4438;50.890;4.726;2022-12-11T01:01:18;21.33;;;13.63;;
8803;SDS011;4438;50.890;4.726;2022-12-11T01:03:44;23.20;;;14.03;;
8803;SDS011;4438;50.890;4.726;2022-12-11T01:06:18;21.50;;;13.70;;
8803;SDS011;4438;50.890;4.726;2022-12-11T01:08:44;20.37;;;13.37;;
8803;SDS011;4438;50.890;4.726;2022-12-11T01:11:12;21.77;;;14.03;;
8803;SDS011;4438;50.890;4.726;2022-12-11T01:13:38;21.50;;;14.00;;
8803;SDS011;4438;50.890;4.726;2022-12-11T01:16:14;21.47;;;14.40;;
8803;SDS011;4438;50.890;4.726;2022-12-11T01:18:40;24.53;;;14.33;;
8803;SDS011;4438;50.890;4.726;2022-12-11T01:21:07;21.77;;;14.37;;
8803;SDS011;4438;50.890;4.726;2022-12-11T01:23:34;21.30;;;14.67;;
8803;SDS011;4438;50.890;4.726;2022-12-11T01:26:07;19.87;;;14.17;;
8803;SDS011;4438;50.890;4.726;2022-12-11T01:28:34;23.20;;;14.27;;
8803;SDS011;4438;50.890;4.726;2022-12-11T01:31:00;22.53;;;14.63;;
8803;SDS011;4438;50.890;4.726;2022-12-11T01:33:26;20.00;;;14.07;;
8803;SDS011;4438;50.890;4.726;2022-12-11T01:35:53;21.40;;;14.47;;
8803;SDS011;4438;50.890;4.726;2022-12-11T01:38:19;18.20;;;13.40;;
8803;SDS011;4438;50.890;4.726;2022-12-11T01:40:46;21.53;;;14.20;;
8803;SDS011;4438;50.890;4.726;2022-12-11T01:43:12;21.23;;;13.57;;
8803;SDS011;4438;50.890;4.726;2022-12-11T01:45:39;23.77;;;14.97;;
8803;SDS011;4438;50.890;4.726;2022-12-11T01:48:25;25.40;;;15.33;;
8803;SDS011;4438;50.890;4.726;2022-12-11T01:51:00;21.83;;;15.07;;
8803;SDS011;4438;50.890;4.726;2022-12-11T01:53:28;24.80;;;15.33;;
8803;SDS011;4438;50.890;4.726;2022-12-11T01:55:56;23.83;;;15.83;;
8803;SDS011;4438;50.890;4.726;2022-12-11T01:58:24;24.03;;;15.27;;
8803;SDS011;4438;50.890;4.726;2022-12-11T02:00:51;26.00;;;15.57;;
8803;SDS011;4438;50.890;4.726;2022-12-11T02:03:18;24.07;;;15.53;;
8803;SDS011;4438;50.890;4.726;2022-12-11T02:05:44;23.67;;;15.53;;
8803;SDS011;4438;50.890;4.726;2022-12-11T02:08:10;22.97;;;15.37;;
8803;SDS011;4438;50.890;4.726;2022-12-11T02:13:13;26.60;;;16.43;;
8803;SDS011;4438;50.890;4.726;2022-12-11T02:15:54;24.87;;;15.40;;
8803;SDS011;4438;50.890;4.726;2022-12-11T02:18:30;25.67;;;15.90;;
8803;SDS011;4438;50.890;4.726;2022-12-11T02:21:17;23.33;;;15.57;;
8803;SDS011;4438;50.890;4.726;2022-12-11T02:28:48;23.40;;;15.43;;
8803;SDS011;4438;50.890;4.726;2022-12-11T02:31:18;24.07;;;15.43;;
8803;SDS011;4438;50.890;4.726;2022-12-11T02:33:51;24.33;;;15.70;;
8803;SDS011;4438;50.890;4.726;2022-12-11T02:36:20;23.20;;;14.27;;
8803;SDS011;4438;50.890;4.726;2022-12-11T02:38:47;21.43;;;14.50;;
8803;SDS011;4438;50.890;4.726;2022-12-11T02:41:15;20.40;;;14.50;;
8803;SDS011;4438;50.890;4.726;2022-12-11T02:43:42;20.80;;;14.27;;
8803;SDS011;4438;50.890;4.726;2022-12-11T02:46:09;22.40;;;14.37;;
8803;SDS011;4438;50.890;4.726;2022-12-11T02:48:37;23.30;;;14.17;;
8803;SDS011;4438;50.890;4.726;2022-12-11T02:51:04;23.13;;;15.37;;
8803;SDS011;4438;50.890;4.726;2022-12-11T02:53:31;23.77;;;14.17;;
8803;SDS011;4438;50.890;4.726;2022-12-11T02:56:05;21.70;;;14.17;;
8803;SDS011;4438;50.890;4.726;2022-12-11T02:58:31;22.80;;;14.73;;
8803;SDS011;4438;50.890;4.726;2022-12-11T03:00:58;19.87;;;13.90;;
8803;SDS011;4438;50.890;4.726;2022-12-11T03:03:24;20.17;;;13.93;;
8803;SDS011;4438;50.890;4.726;2022-12-11T03:05:52;20.73;;;14.57;;
8803;SDS011;4438;50.890;4.726;2022-12-11T03:08:19;20.77;;;14.03;;
8803;SDS011;4438;50.890;4.726;2022-12-11T03:10:45;22.20;;;14.77;;
8803;SDS011;4438;50.890;4.726;2022-12-11T03:13:12;22.43;;;14.07;;
8803;SDS011;4438;50.890;4.726;2022-12-11T03:15:40;22.63;;;14.20;;
8803;SDS011;4438;50.890;4.726;2022-12-11T03:18:22;22.60;;;14.53;;
8803;SDS011;4438;50.890;4.726;2022-12-11T03:20:59;22.70;;;14.90;;
8803;SDS011;4438;50.890;4.726;2022-12-11T03:23:48;24.40;;;14.60;;
8803;SDS011;4438;50.890;4.726;2022-12-11T03:26:15;23.10;;;14.97;;
8803;SDS011;4438;50.890;4.726;2022-12-11T03:31:12;23.47;;;14.70;;
8803;SDS011;4438;50.890;4.726;2022-12-11T03:33:40;21.73;;;14.17;;
8803;SDS011;4438;50.890;4.726;2022-12-11T03:36:09;25.70;;;14.63;;
8803;SDS011;4438;50.890;4.726;2022-12-11T03:38:43;24.97;;;15.47;;
8803;SDS011;4438;50.890;4.726;2022-12-11T03:41:13;22.23;;;13.57;;
8803;SDS011;4438;50.890;4.726;2022-12-11T03:43:40;25.33;;;14.97;;
8803;SDS011;4438;50.890;4.726;2022-12-11T03:46:07;25.13;;;15.00;;
8803;SDS011;4438;50.890;4.726;2022-12-11T03:48:35;23.77;;;14.57;;
8803;SDS011;4438;50.890;4.726;2022-12-11T03:51:02;24.03;;;14.73;;
8803;SDS011;4438;50.890;4.726;2022-12-11T03:53:30;22.50;;;14.33;;
8803;SDS011;4438;50.890;4.726;2022-12-11T03:55:56;22.07;;;14.57;;
8803;SDS011;4438;50.890;4.726;2022-12-11T03:58:24;23.87;;;15.17;;
8803;SDS011;4438;50.890;4.726;2022-12-11T04:00:50;23.43;;;14.83;;
8803;SDS011;4438;50.890;4.726;2022-12-11T04:03:16;24.10;;;14.87;;
8803;SDS011;4438;50.890;4.726;2022-12-11T04:05:44;21.10;;;14.60;;
8803;SDS011;4438;50.890;4.726;2022-12-11T04:08:10;20.60;;;14.00;;
8803;SDS011;4438;50.890;4.726;2022-12-11T04:10:37;24.67;;;15.13;;
8803;SDS011;4438;50.890;4.726;2022-12-11T04:13:03;24.63;;;15.23;;
8803;SDS011;4438;50.890;4.726;2022-12-11T04:15:29;23.40;;;13.37;;
8803;SDS011;4438;50.890;4.726;2022-12-11T04:17:55;25.30;;;15.60;;
8803;SDS011;4438;50.890;4.726;2022-12-11T04:20:39;24.07;;;15.10;;
8803;SDS011;4438;50.890;4.726;2022-12-11T04:23:24;22.40;;;14.03;;
8803;SDS011;4438;50.890;4.726;2022-12-11T04:26:13;23.50;;;14.80;;
8803;SDS011;4438;50.890;4.726;2022-12-11T04:28:40;20.63;;;13.80;;
8803;SDS011;4438;50.890;4.726;2022-12-11T04:31:10;23.03;;;15.17;;
8803;SDS011;4438;50.890;4.726;2022-12-11T04:33:37;21.57;;;13.80;;
8803;SDS011;4438;50.890;4.726;2022-12-11T04:36:03;22.60;;;13.60;;
8803;SDS011;4438;50.890;4.726;2022-12-11T04:38:29;23.23;;;14.67;;
8803;SDS011;4438;50.890;4.726;2022-12-11T04:40:56;26.87;;;15.37;;
8803;SDS011;4438;50.890;4.726;2022-12-11T04:43:22;22.00;;;13.57;;
8803;SDS011;4438;50.890;4.726;2022-12-11T04:45:48;23.03;;;13.83;;
8803;SDS011;4438;50.890;4.726;2022-12-11T04:48:15;24.17;;;14.30;;
8803;SDS011;4438;50.890;4.726;2022-12-11T04:50:41;21.23;;;13.80;;
8803;SDS011;4438;50.890;4.726;2022-12-11T04:53:07;24.43;;;14.30;;
8803;SDS011;4438;50.890;4.726;2022-12-11T04:55:33;22.13;;;14.07;;
8803;SDS011;4438;50.890;4.726;2022-12-11T04:57:59;20.50;;;13.53;;
8803;SDS011;4438;50.890;4.726;2022-12-11T05:00:25;21.90;;;14.43;;
8803;SDS011;4438;50.890;4.726;2022-12-11T05:02:52;25.33;;;15.43;;
8803;SDS011;4438;50.890;4.726;2022-12-11T05:05:18;24.77;;;14.80;;
8803;SDS011;4438;50.890;4.726;2022-12-11T05:07:45;21.03;;;13.67;;
8803;SDS011;4438;50.890;4.726;2022-12-11T05:10:11;26.43;;;15.47;;
8803;SDS011;4438;50.890;4.726;2022-12-11T05:12:37;24.20;;;14.63;;
8803;SDS011;4438;50.890;4.726;2022-12-11T05:15:03;25.03;;;13.80;;
8803;SDS011;4438;50.890;4.726;2022-12-11T05:17:30;23.97;;;13.87;;
8803;SDS011;4438;50.890;4.726;2022-12-11T05:19:56;26.37;;;15.37;;
8803;SDS011;4438;50.890;4.726;2022-12-11T05:22:22;24.40;;;15.07;;
8803;SDS011;4438;50.890;4.726;2022-12-11T05:24:48;26.57;;;15.00;;
8803;SDS011;4438;50.890;4.726;2022-12-11T05:27:14;26.90;;;15.83;;
8803;SDS011;4438;50.890;4.726;2022-12-11T05:29:40;24.63;;;15.50;;
8803;SDS011;4438;50.890;4.726;2022-12-11T05:32:06;24.57;;;16.40;;
8803;SDS011;4438;50.890;4.726;2022-12-11T05:34:33;28.53;;;16.60;;
8803;SDS011;4438;50.890;4.726;2022-12-11T05:36:59;23.57;;;15.53;;
8803;SDS011;4438;50.890;4.726;2022-12-11T05:39:26;28.07;;;15.80;;
8803;SDS011;4438;50.890;4.726;2022-12-11T05:41:52;29.27;;;16.83;;
8803;SDS011;4438;50.890;4.726;2022-12-11T05:44:19;27.73;;;16.43;;
8803;SDS011;4438;50.890;4.726;2022-12-11T05:46:45;24.70;;;15.83;;
8803;SDS011;4438;50.890;4.726;2022-12-11T05:49:11;26.87;;;16.93;;
8803;SDS011;4438;50.890;4.726;2022-12-11T05:51:37;29.20;;;16.70;;
8803;SDS011;4438;50.890;4.726;2022-12-11T05:54:05;24.80;;;16.10;;
8803;SDS011;4438;50.890;4.726;2022-12-11T05:56:32;27.17;;;15.90;;
8803;SDS011;4438;50.890;4.726;2022-12-11T05:58:59;30.33;;;16.37;;
8803;SDS011;4438;50.890;4.726;2022-12-11T06:01:27;29.27;;;16.60;;
8803;SDS011;4438;50.890;4.726;2022-12-11T06:03:54;29.97;;;17.63;;
8803;SDS011;4438;50.890;4.726;2022-12-11T06:06:20;30.20;;;17.63;;
8803;SDS011;4438;50.890;4.726;2022-12-11T06:08:50;26.33;;;16.47;;
8803;SDS011;4438;50.890;4.726;2022-12-11T06:11:20;30.10;;;17.67;;
8803;SDS011;4438;50.890;4.726;2022-12-11T06:13:46;27.77;;;16.60;;
8803;SDS011;4438;50.890;4.726;2022-12-11T06:16:13;29.30;;;17.07;;
8803;SDS011;4438;50.890;4.726;2022-12-11T06:18:40;26.50;;;16.83;;
8803;SDS011;4438;50.890;4.726;2022-12-11T06:21:14;25.97;;;15.37;;
8803;SDS011;4438;50.890;4.726;2022-12-11T06:23:41;26.50;;;16.07;;
8803;SDS011;4438;50.890;4.726;2022-12-11T06:26:07;28.67;;;17.17;;
8803;SDS011;4438;50.890;4.726;2022-12-11T06:28:34;28.17;;;17.07;;
8803;SDS011;4438;50.890;4.726;2022-12-11T06:31:00;30.97;;;17.47;;
8803;SDS011;4438;50.890;4.726;2022-12-11T06:33:26;25.27;;;16.27;;
8803;SDS011;4438;50.890;4.726;2022-12-11T06:35:52;28.10;;;16.03;;
8803;SDS011;4438;50.890;4.726;2022-12-11T06:38:19;32.87;;;18.37;;
8803;SDS011;4438;50.890;4.726;2022-12-11T06:40:45;30.17;;;17.37;;
8803;SDS011;4438;50.890;4.726;2022-12-11T06:43:19;28.37;;;16.93;;
8803;SDS011;4438;50.890;4.726;2022-12-11T06:45:45;27.43;;;17.13;;
8803;SDS011;4438;50.890;4.726;2022-12-11T06:48:11;26.27;;;16.30;;
8803;SDS011;4438;50.890;4.726;2022-12-11T06:50:37;29.47;;;17.57;;
8803;SDS011;4438;50.890;4.726;2022-12-11T06:53:03;30.57;;;17.83;;
8803;SDS011;4438;50.890;4.726;2022-12-11T06:55:30;32.17;;;18.67;;
8803;SDS011;4438;50.890;4.726;2022-12-11T06:57:56;28.17;;;17.90;;
8803;SDS011;4438;50.890;4.726;2022-12-11T07:00:22;27.97;;;17.23;;
8803;SDS011;4438;50.890;4.726;2022-12-11T07:02:51;29.27;;;17.63;;
8803;SDS011;4438;50.890;4.726;2022-12-11T07:05:17;30.67;;;17.90;;
8803;SDS011;4438;50.890;4.726;2022-12-11T07:07:44;34.83;;;19.47;;
8803;SDS011;4438;50.890;4.726;2022-12-11T07:10:11;30.10;;;17.97;;
8803;SDS011;4438;50.890;4.726;2022-12-11T07:12:37;31.57;;;18.63;;
8803;SDS011;4438;50.890;4.726;2022-12-11T07:15:04;28.90;;;18.47;;
8803;SDS011;4438;50.890;4.726;2022-12-11T07:17:30;30.13;;;18.30;;
8803;SDS011;4438;50.890;4.726;2022-12-11T07:19:56;29.37;;;18.07;;
8803;SDS011;4438;50.890;4.726;2022-12-11T07:22:22;30.13;;;18.40;;
8803;SDS011;4438;50.890;4.726;2022-12-11T07:24:48;27.83;;;17.67;;
8803;SDS011;4438;50.890;4.726;2022-12-11T07:27:14;28.97;;;18.10;;
8803;SDS011;4438;50.890;4.726;2022-12-11T07:29:41;29.00;;;18.00;;
8803;SDS011;4438;50.890;4.726;2022-12-11T07:32:07;28.10;;;16.80;;
8803;SDS011;4438;50.890;4.726;2022-12-11T07:34:33;27.17;;;17.80;;
8803;SDS011;4438;50.890;4.726;2022-12-11T07:36:59;30.23;;;18.00;;
8803;SDS011;4438;50.890;4.726;2022-12-11T07:39:25;28.47;;;17.60;;
8803;SDS011;4438;50.890;4.726;2022-12-11T07:41:51;28.13;;;17.30;;
8803;SDS011;4438;50.890;4.726;2022-12-11T07:44:20;26.20;;;17.43;;
8803;SDS011;4438;50.890;4.726;2022-12-11T07:46:50;27.80;;;17.27;;
8803;SDS011;4438;50.890;4.726;2022-12-11T07:49:16;29.07;;;17.83;;
8803;SDS011;4438;50.890;4.726;2022-12-11T07:51:42;28.97;;;18.40;;
8803;SDS011;4438;50.890;4.726;2022-12-11T07:54:10;26.73;;;17.37;;
8803;SDS011;4438;50.890;4.726;2022-12-11T07:56:41;31.03;;;17.97;;
8803;SDS011;4438;50.890;4.726;2022-12-11T07:59:07;29.60;;;18.27;;
8803;SDS011;4438;50.890;4.726;2022-12-11T08:01:34;28.73;;;17.37;;
8803;SDS011;4438;50.890;4.726;2022-12-11T08:04:00;30.07;;;17.97;;
8803;SDS011;4438;50.890;4.726;2022-12-11T08:06:29;28.77;;;17.93;;
8803;SDS011;4438;50.890;4.726;2022-12-11T08:08:56;32.53;;;18.03;;
8803;SDS011;4438;50.890;4.726;2022-12-11T08:11:23;28.93;;;17.30;;
8803;SDS011;4438;50.890;4.726;2022-12-11T08:13:49;28.27;;;17.47;;
8803;SDS011;4438;50.890;4.726;2022-12-11T08:16:16;29.33;;;17.80;;
8803;SDS011;4438;50.890;4.726;2022-12-11T08:18:44;28.20;;;17.53;;
8803;SDS011;4438;50.890;4.726;2022-12-11T08:21:16;30.60;;;18.80;;
8803;SDS011;4438;50.890;4.726;2022-12-11T08:23:44;28.50;;;17.40;;
8803;SDS011;4438;50.890;4.726;2022-12-11T08:26:12;29.20;;;17.83;;
8803;SDS011;4438;50.890;4.726;2022-12-11T08:28:38;29.03;;;17.43;;
8803;SDS011;4438;50.890;4.726;2022-12-11T08:31:08;24.83;;;17.00;;
8803;SDS011;4438;50.890;4.726;2022-12-11T08:33:35;28.97;;;18.53;;
8803;SDS011;4438;50.890;4.726;2022-12-11T08:36:02;27.17;;;17.23;;
8803;SDS011;4438;50.890;4.726;2022-12-11T08:38:29;26.13;;;16.10;;
8803;SDS011;4438;50.890;4.726;2022-12-11T08:40:55;29.53;;;18.03;;
8803;SDS011;4438;50.890;4.726;2022-12-11T08:43:28;28.47;;;17.90;;
8803;SDS011;4438;50.890;4.726;2022-12-11T08:45:56;25.03;;;16.17;;
8803;SDS011;4438;50.890;4.726;2022-12-11T08:48:23;28.77;;;18.17;;
8803;SDS011;4438;50.890;4.726;2022-12-11T08:50:49;27.73;;;17.83;;
8803;SDS011;4438;50.890;4.726;2022-12-11T08:53:15;29.30;;;16.90;;
8803;SDS011;4438;50.890;4.726;2022-12-11T08:55:41;28.73;;;17.50;;
8803;SDS011;4438;50.890;4.726;2022-12-11T08:58:08;28.90;;;17.70;;
8803;SDS011;4438;50.890;4.726;2022-12-11T09:00:34;25.40;;;16.63;;
8803;SDS011;4438;50.890;4.726;2022-12-11T09:03:15;26.00;;;17.20;;
8803;SDS011;4438;50.890;4.726;2022-12-11T09:05:41;25.30;;;16.60;;
8803;SDS011;4438;50.890;4.726;2022-12-11T09:08:07;26.57;;;16.30;;
8803;SDS011;4438;50.890;4.726;2022-12-11T09:10:34;27.83;;;18.13;;
8803;SDS011;4438;50.890;4.726;2022-12-11T09:13:00;26.20;;;17.23;;
8803;SDS011;4438;50.890;4.726;2022-12-11T09:15:26;24.87;;;16.03;;
8803;SDS011;4438;50.890;4.726;2022-12-11T09:17:52;25.57;;;16.13;;
8803;SDS011;4438;50.890;4.726;2022-12-11T09:20:18;24.63;;;16.27;;
8803;SDS011;4438;50.890;4.726;2022-12-11T09:22:44;26.57;;;16.30;;
8803;SDS011;4438;50.890;4.726;2022-12-11T09:25:10;24.83;;;16.50;;
8803;SDS011;4438;50.890;4.726;2022-12-11T09:27:36;25.17;;;15.93;;
8803;SDS011;4438;50.890;4.726;2022-12-11T09:30:03;23.93;;;15.20;;
8803;SDS011;4438;50.890;4.726;2022-12-11T09:32:29;24.10;;;15.73;;
8803;SDS011;4438;50.890;4.726;2022-12-11T09:34:55;22.10;;;15.27;;
8803;SDS011;4438;50.890;4.726;2022-12-11T09:37:21;24.27;;;16.47;;
8803;SDS011;4438;50.890;4.726;2022-12-11T09:39:47;23.33;;;15.30;;
8803;SDS011;4438;50.890;4.726;2022-12-11T09:42:35;23.47;;;15.30;;
8803;SDS011;4438;50.890;4.726;2022-12-11T09:45:02;23.10;;;16.23;;
8803;SDS011;4438;50.890;4.726;2022-12-11T09:47:35;21.33;;;15.07;;
8803;SDS011;4438;50.890;4.726;2022-12-11T09:52:34;20.90;;;14.40;;
8803;SDS011;4438;50.890;4.726;2022-12-11T09:55:03;20.83;;;13.83;;
8803;SDS011;4438;50.890;4.726;2022-12-11T10:00:06;20.03;;;14.20;;
8803;SDS011;4438;50.890;4.726;2022-12-11T10:02:51;20.90;;;14.40;;
8803;SDS011;4438;50.890;4.726;2022-12-11T10:07:51;21.33;;;14.10;;
8803;SDS011;4438;50.890;4.726;2022-12-11T10:10:33;24.57;;;14.87;;
8803;SDS011;4438;50.890;4.726;2022-12-11T10:15:36;20.97;;;14.03;;
8803;SDS011;4438;50.890;4.726;2022-12-11T10:18:08;24.83;;;15.10;;
8803;SDS011;4438;50.890;4.726;2022-12-11T10:20:36;20.47;;;13.97;;
8803;SDS011;4438;50.890;4.726;2022-12-11T10:23:08;21.07;;;14.03;;
8803;SDS011;4438;50.890;4.726;2022-12-11T10:25:36;20.50;;;14.23;;
8803;SDS011;4438;50.890;4.726;2022-12-11T10:28:12;22.47;;;14.33;;
8803;SDS011;4438;50.890;4.726;2022-12-11T10:30:40;20.73;;;13.80;;
8803;SDS011;4438;50.890;4.726;2022-12-11T10:33:22;22.33;;;14.53;;
8803;SDS011;4438;50.890;4.726;2022-12-11T10:35:52;19.80;;;14.30;;
8803;SDS011;4438;50.890;4.726;2022-12-11T10:41:19;21.57;;;13.70;;
8803;SDS011;4438;50.890;4.726;2022-12-11T10:43:46;21.90;;;13.40;;
8803;SDS011;4438;50.890;4.726;2022-12-11T10:46:14;22.10;;;13.57;;
8803;SDS011;4438;50.890;4.726;2022-12-11T10:48:51;22.37;;;13.83;;
8803;SDS011;4438;50.890;4.726;2022-12-11T10:51:18;23.27;;;15.37;;
8803;SDS011;4438;50.890;4.726;2022-12-11T10:53:48;22.47;;;15.10;;
8803;SDS011;4438;50.890;4.726;2022-12-11T10:56:14;24.23;;;15.30;;
8803;SDS011;4438;50.890;4.726;2022-12-11T10:58:46;20.67;;;13.90;;
8803;SDS011;4438;50.890;4.726;2022-12-11T11:01:14;21.30;;;14.73;;
8803;SDS011;4438;50.890;4.726;2022-12-11T11:03:57;21.83;;;14.73;;
8803;SDS011;4438;50.890;4.726;2022-12-11T11:06:25;21.33;;;14.80;;
8803;SDS011;4438;50.890;4.726;2022-12-11T11:08:52;20.70;;;14.10;;
8803;SDS011;4438;50.890;4.726;2022-12-11T11:13:45;20.37;;;13.97;;
8803;SDS011;4438;50.890;4.726;2022-12-11T11:16:11;22.53;;;14.63;;
8803;SDS011;4438;50.890;4.726;2022-12-11T11:18:38;20.27;;;13.47;;
8803;SDS011;4438;50.890;4.726;2022-12-11T11:21:05;22.73;;;14.77;;
8803;SDS011;4438;50.890;4.726;2022-12-11T11:23:31;20.87;;;13.77;;
8803;SDS011;4438;50.890;4.726;2022-12-11T11:26:00;20.33;;;13.30;;
8803;SDS011;4438;50.890;4.726;2022-12-11T11:28:32;21.87;;;14.43;;
8803;SDS011;4438;50.890;4.726;2022-12-11T11:31:03;19.23;;;13.77;;
8803;SDS011;4438;50.890;4.726;2022-12-11T11:33:30;20.27;;;13.97;;
8803;SDS011;4438;50.890;4.726;2022-12-11T11:36:01;21.27;;;14.13;;
8803;SDS011;4438;50.890;4.726;2022-12-11T11:38:34;18.67;;;13.53;;
8803;SDS011;4438;50.890;4.726;2022-12-11T11:41:10;21.17;;;14.00;;
8803;SDS011;4438;50.890;4.726;2022-12-11T11:43:48;22.53;;;14.13;;
8803;SDS011;4438;50.890;4.726;2022-12-11T11:46:16;21.60;;;13.23;;
8803;SDS011;4438;50.890;4.726;2022-12-11T11:53:43;21.60;;;14.10;;
8803;SDS011;4438;50.890;4.726;2022-12-11T11:56:16;21.90;;;14.20;;
8803;SDS011;4438;50.890;4.726;2022-12-11T11:58:51;20.67;;;13.47;;
8803;SDS011;4438;50.890;4.726;2022-12-11T12:01:20;19.60;;;13.77;;
8803;SDS011;4438;50.890;4.726;2022-12-11T12:03:46;19.20;;;13.10;;
8803;SDS011;4438;50.890;4.726;2022-12-11T12:24:45;21.50;;;14.13;;
8803;SDS011;4438;50.890;4.726;2022-12-11T12:27:21;19.43;;;12.93;;
8803;SDS011;4438;50.890;4.726;2022-12-11T12:29:54;18.80;;;12.47;;
8803;SDS011;4438;50.890;4.726;2022-12-11T12:32:26;22.50;;;14.13;;
8803;SDS011;4438;50.890;4.726;2022-12-11T12:42:25;20.90;;;12.93;;
8803;SDS011;4438;50.890;4.726;2022-12-11T12:47:32;18.03;;;12.27;;
8803;SDS011;4438;50.890;4.726;2022-12-11T12:50:00;26.80;;;14.80;;
8803;SDS011;4438;50.890;4.726;2022-12-11T12:54:54;25.50;;;14.10;;
8803;SDS011;4438;50.890;4.726;2022-12-11T12:57:43;21.80;;;13.43;;
8803;SDS011;4438;50.890;4.726;2022-12-11T13:00:10;20.33;;;13.33;;
8803;SDS011;4438;50.890;4.726;2022-12-11T13:02:37;22.23;;;13.87;;
8803;SDS011;4438;50.890;4.726;2022-12-11T13:05:05;22.77;;;12.90;;
8803;SDS011;4438;50.890;4.726;2022-12-11T13:07:32;20.27;;;13.27;;
8803;SDS011;4438;50.890;4.726;2022-12-11T13:12:51;21.00;;;12.90;;
8803;SDS011;4438;50.890;4.726;2022-12-11T13:15:31;20.87;;;13.70;;
8803;SDS011;4438;50.890;4.726;2022-12-11T13:17:58;19.77;;;13.13;;
8803;SDS011;4438;50.890;4.726;2022-12-11T13:20:26;21.60;;;13.97;;
8803;SDS011;4438;50.890;4.726;2022-12-11T13:25:27;22.10;;;14.23;;
8803;SDS011;4438;50.890;4.726;2022-12-11T13:28:03;21.90;;;13.57;;
8803;SDS011;4438;50.890;4.726;2022-12-11T13:30:29;19.13;;;12.53;;
8803;SDS011;4438;50.890;4.726;2022-12-11T13:35:21;19.10;;;12.87;;
8803;SDS011;4438;50.890;4.726;2022-12-11T13:37:49;20.30;;;13.90;;
8803;SDS011;4438;50.890;4.726;2022-12-11T13:40:25;22.20;;;14.07;;
8803;SDS011;4438;50.890;4.726;2022-12-11T13:42:53;22.73;;;14.37;;
8803;SDS011;4438;50.890;4.726;2022-12-11T13:45:21;21.73;;;13.87;;
8803;SDS011;4438;50.890;4.726;2022-12-11T13:47:47;21.90;;;14.10;;
8803;SDS011;4438;50.890;4.726;2022-12-11T13:50:16;19.57;;;13.67;;
8803;SDS011;4438;50.890;4.726;2022-12-11T13:52:52;20.17;;;13.37;;
8803;SDS011;4438;50.890;4.726;2022-12-11T13:55:28;22.63;;;13.93;;
8803;SDS011;4438;50.890;4.726;2022-12-11T13:57:55;24.23;;;14.57;;
8803;SDS011;4438;50.890;4.726;2022-12-11T14:00:25;22.07;;;14.07;;
8803;SDS011;4438;50.890;4.726;2022-12-11T14:02:53;20.10;;;13.40;;
8803;SDS011;4438;50.890;4.726;2022-12-11T14:05:20;21.70;;;14.57;;
8803;SDS011;4438;50.890;4.726;2022-12-11T14:07:56;24.23;;;15.40;;
8803;SDS011;4438;50.890;4.726;2022-12-11T14:10:27;22.37;;;14.80;;
8803;SDS011;4438;50.890;4.726;2022-12-11T14:15:24;24.47;;;15.03;;
8803;SDS011;4438;50.890;4.726;2022-12-11T14:17:51;23.87;;;15.17;;
8803;SDS011;4438;50.890;4.726;2022-12-11T14:20:23;21.87;;;14.97;;
8803;SDS011;4438;50.890;4.726;2022-12-11T14:22:49;22.87;;;14.47;;
8803;SDS011;4438;50.890;4.726;2022-12-11T14:25:20;22.07;;;13.73;;
8803;SDS011;4438;50.890;4.726;2022-12-11T14:27:51;24.80;;;15.63;;
8803;SDS011;4438;50.890;4.726;2022-12-11T14:32:47;22.70;;;15.03;;
8803;SDS011;4438;50.890;4.726;2022-12-11T14:35:27;22.70;;;15.67;;
8803;SDS011;4438;50.890;4.726;2022-12-11T14:37:54;23.03;;;14.37;;
8803;SDS011;4438;50.890;4.726;2022-12-11T14:40:23;23.07;;;14.70;;
8803;SDS011;4438;50.890;4.726;2022-12-11T14:42:51;21.67;;;14.50;;
8803;SDS011;4438;50.890;4.726;2022-12-11T14:45:20;23.97;;;14.87;;
8803;SDS011;4438;50.890;4.726;2022-12-11T14:47:47;23.17;;;14.60;;
8803;SDS011;4438;50.890;4.726;2022-12-11T14:52:47;23.20;;;15.07;;
8803;SDS011;4438;50.890;4.726;2022-12-11T14:55:20;24.60;;;15.93;;
8803;SDS011;4438;50.890;4.726;2022-12-11T14:57:47;24.47;;;15.47;;
8803;SDS011;4438;50.890;4.726;2022-12-11T15:00:21;27.60;;;17.03;;
8803;SDS011;4438;50.890;4.726;2022-12-11T15:02:58;22.93;;;14.93;;
8803;SDS011;4438;50.890;4.726;2022-12-11T15:05:24;26.40;;;17.40;;
8803;SDS011;4438;50.890;4.726;2022-12-11T15:08:00;25.67;;;16.47;;
8803;SDS011;4438;50.890;4.726;2022-12-11T15:12:55;28.43;;;15.97;;
8803;SDS011;4438;50.890;4.726;2022-12-11T15:15:21;28.70;;;16.83;;
8803;SDS011;4438;50.890;4.726;2022-12-11T15:17:48;27.80;;;17.03;;
8803;SDS011;4438;50.890;4.726;2022-12-11T15:20:20;24.57;;;16.40;;
8803;SDS011;4438;50.890;4.726;2022-12-11T15:22:47;25.30;;;16.47;;
8803;SDS011;4438;50.890;4.726;2022-12-11T15:25:18;29.40;;;17.87;;
8803;SDS011;4438;50.890;4.726;2022-12-11T15:27:48;27.10;;;17.07;;
8803;SDS011;4438;50.890;4.726;2022-12-11T15:32:42;29.70;;;17.73;;
8803;SDS011;4438;50.890;4.726;2022-12-11T15:35:22;27.50;;;18.07;;
8803;SDS011;4438;50.890;4.726;2022-12-11T15:37:52;33.33;;;20.17;;
8803;SDS011;4438;50.890;4.726;2022-12-11T15:40:18;31.50;;;18.97;;
8803;SDS011;4438;50.890;4.726;2022-12-11T15:42:44;28.83;;;19.10;;
8803;SDS011;4438;50.890;4.726;2022-12-11T15:45:15;27.90;;;18.33;;
8803;SDS011;4438;50.890;4.726;2022-12-11T15:47:43;26.83;;;17.73;;
8803;SDS011;4438;50.890;4.726;2022-12-11T15:50:16;29.67;;;18.67;;
8803;SDS011;4438;50.890;4.726;2022-12-11T15:52:43;29.43;;;18.17;;
8803;SDS011;4438;50.890;4.726;2022-12-11T15:55:09;30.20;;;17.03;;
8803;SDS011;4438;50.890;4.726;2022-12-11T15:57:35;27.87;;;17.40;;
8803;SDS011;4438;50.890;4.726;2022-12-11T16:00:02;27.53;;;18.43;;
8803;SDS011;4438;50.890;4.726;2022-12-11T16:02:30;26.93;;;16.93;;
8803;SDS011;4438;50.890;4.726;2022-12-11T16:04:56;27.83;;;17.73;;
8803;SDS011;4438;50.890;4.726;2022-12-11T16:07:24;25.13;;;17.10;;
8803;SDS011;4438;50.890;4.726;2022-12-11T16:09:51;29.43;;;17.57;;
8803;SDS011;4438;50.890;4.726;2022-12-11T16:12:17;25.27;;;18.20;;
8803;SDS011;4438;50.890;4.726;2022-12-11T16:14:44;30.77;;;18.77;;
8803;SDS011;4438;50.890;4.726;2022-12-11T16:17:11;27.33;;;19.33;;